createdAt,value
2018-04-25T00:00:04.528Z,43.03
2018-04-25T00:06:08.970Z,40.97
2018-04-25T00:12:13.434Z,47.93
2018-04-25T00:18:17.843Z,43.33
2018-04-25T00:24:22.261Z,41.90
2018-04-25T00:30:27.420Z,40.60
2018-04-25T00:36:31.967Z,39.73
2018-04-25T00:42:36.335Z,42.20
2018-04-25T00:48:40.724Z,40.67
2018-04-25T00:54:45.131Z,41.13
2018-04-25T01:00:49.499Z,39.20
2018-04-25T01:06:53.934Z,34.33
2018-04-25T01:12:59.241Z,38.67
2018-04-25T01:19:03.640Z,36.67
2018-04-25T01:25:09.816Z,33.90
2018-04-25T01:31:33.669Z,36.83
2018-04-25T01:37:55.505Z,34.50
2018-04-25T01:43:59.928Z,31.97
2018-04-25T01:50:15.158Z,42.63
2018-04-25T01:56:37.379Z,33.80
2018-04-25T02:02:47.599Z,33.00
2018-04-25T02:08:51.776Z,29.87
2018-04-25T02:14:56.323Z,28.33
2018-04-25T02:21:00.700Z,26.27
2018-04-25T02:27:05.189Z,26.60
2018-04-25T02:33:09.591Z,23.33
2018-04-25T02:39:14.153Z,22.07
2018-04-25T02:45:19.344Z,22.43
2018-04-25T02:51:24.011Z,17.40
2018-04-25T02:57:28.406Z,12.23
2018-04-25T03:03:32.786Z,10.43
2018-04-25T03:09:37.217Z,14.70
2018-04-25T03:15:41.615Z,9.17
2018-04-25T03:21:45.973Z,10.83
2018-04-25T03:27:50.415Z,9.53
2018-04-25T03:33:55.566Z,8.00
2018-04-25T03:39:59.919Z,6.83
2018-04-25T03:46:04.417Z,8.10
2018-04-25T03:52:08.781Z,6.47
2018-04-25T03:58:13.190Z,9.10
2018-04-25T04:04:17.888Z,6.60
2018-04-25T04:10:23.002Z,6.03
2018-04-25T04:16:27.634Z,10.23
2018-04-25T04:22:32.181Z,6.90
2018-04-25T04:28:36.621Z,8.13
2018-04-25T04:34:41.771Z,4.90
2018-04-25T04:40:46.186Z,9.13
2018-04-25T04:46:51.399Z,6.53
2018-04-25T04:52:55.768Z,7.87
2018-04-25T04:59:00.154Z,8.00
2018-04-25T05:05:05.451Z,7.33
2018-04-25T05:11:09.808Z,6.53
2018-04-25T05:17:14.211Z,14.70
2018-04-25T05:23:18.650Z,6.57
2018-04-25T05:29:23.872Z,7.40
2018-04-25T05:35:28.239Z,9.13
2018-04-25T05:41:32.603Z,6.77
2018-04-25T05:47:37.092Z,9.43
2018-04-25T05:53:41.814Z,6.23
2018-04-25T05:59:46.247Z,9.23
2018-04-25T06:05:50.638Z,9.30
2018-04-25T06:11:55.108Z,10.33
2018-04-25T06:17:59.488Z,6.67
2018-04-25T06:24:03.870Z,10.00
2018-04-25T06:30:08.351Z,10.43
2018-04-25T06:36:12.829Z,15.07
2018-04-25T06:42:17.203Z,8.67
2018-04-25T06:48:21.617Z,9.60
2018-04-25T06:54:25.993Z,7.20
2018-04-25T07:00:30.381Z,9.03
2018-04-25T07:06:35.515Z,9.37
2018-04-25T07:12:39.893Z,7.50
2018-04-25T07:18:44.233Z,9.47
2018-04-25T07:24:49.371Z,12.13
2018-04-25T07:30:53.803Z,11.30
2018-04-25T07:36:58.939Z,13.03
2018-04-25T07:43:03.295Z,7.70
2018-04-25T07:49:07.676Z,10.93
2018-04-25T07:55:12.058Z,10.70
2018-04-25T08:01:16.407Z,14.30
2018-04-25T08:07:20.770Z,12.83
2018-04-25T08:13:43.754Z,12.30
2018-04-25T08:20:05.907Z,17.10
2018-04-25T08:26:10.401Z,18.70
2018-04-25T08:32:14.782Z,10.40
2018-04-25T08:38:19.185Z,13.33
2018-04-25T08:44:23.604Z,10.73
2018-04-25T08:50:28.011Z,11.33
2018-04-25T08:56:32.772Z,8.50
2018-04-25T09:02:37.252Z,8.27
2018-04-25T09:08:41.603Z,5.07
2018-04-25T09:14:45.987Z,3.50
2018-04-25T09:20:50.355Z,1.40
2018-04-25T09:26:54.730Z,2.30
2018-04-25T09:32:59.146Z,1.40
2018-04-25T09:39:04.009Z,2.30
2018-04-25T09:45:08.411Z,2.60
2018-04-25T09:51:12.781Z,2.10
2018-04-25T09:57:17.212Z,2.40
2018-04-25T10:03:23.351Z,2.83
2018-04-25T10:09:27.907Z,3.17
2018-04-25T10:15:33.220Z,3.17
2018-04-25T10:21:37.697Z,3.77
2018-04-25T10:27:42.062Z,4.40
2018-04-25T10:33:46.431Z,4.13
2018-04-25T10:39:50.786Z,3.27
2018-04-25T10:45:55.977Z,4.73
2018-04-25T10:52:00.338Z,4.50
2018-04-25T10:58:06.315Z,11.47
2018-04-25T11:04:10.705Z,4.63
2018-04-25T11:10:15.104Z,6.30
2018-04-25T11:16:19.779Z,4.30
2018-04-25T11:22:24.178Z,6.57
2018-04-25T11:28:29.406Z,10.00
2018-04-25T11:34:33.922Z,4.00
2018-04-25T11:40:39.073Z,6.27
2018-04-25T11:46:43.444Z,5.73
2018-04-25T11:52:47.912Z,5.30
2018-04-25T11:58:52.282Z,5.63
2018-04-25T12:04:57.541Z,5.70
2018-04-25T12:11:01.919Z,8.10
2018-04-25T12:17:07.141Z,6.97
2018-04-25T12:23:11.515Z,5.93
2018-04-25T12:29:16.635Z,6.57
2018-04-25T12:35:21.005Z,5.83
2018-04-25T12:41:25.337Z,5.10
2018-04-25T12:47:30.427Z,6.00
2018-04-25T12:53:34.837Z,4.40
2018-04-25T12:59:39.967Z,6.40
2018-04-25T13:05:44.332Z,3.90
2018-04-25T13:11:49.551Z,7.43
2018-04-25T13:17:53.978Z,6.70
2018-04-25T13:23:58.344Z,8.67
2018-04-25T13:30:03.523Z,3.73
2018-04-25T13:36:08.667Z,6.13
2018-04-25T13:42:13.039Z,4.17
2018-04-25T13:48:17.396Z,8.73
2018-04-25T13:54:21.792Z,4.20
2018-04-25T14:00:26.152Z,4.83
2018-04-25T14:06:30.543Z,5.87
2018-04-25T14:12:34.896Z,5.30
2018-04-25T14:18:39.296Z,15.43
2018-04-25T14:24:43.731Z,9.07
2018-04-25T14:30:49.647Z,5.93
2018-04-25T14:36:54.024Z,4.97
2018-04-25T14:42:58.379Z,5.47
2018-04-25T14:49:03.612Z,3.60
2018-04-25T14:55:07.987Z,4.37
2018-04-25T15:01:12.365Z,5.37
2018-04-25T15:07:16.798Z,4.80
2018-04-25T15:13:21.936Z,5.17
2018-04-25T15:19:26.289Z,3.37
2018-04-25T15:25:30.730Z,5.17
2018-04-25T15:31:35.135Z,5.33
2018-04-25T15:37:39.542Z,4.80
2018-04-25T15:43:43.903Z,4.60
2018-04-25T15:49:48.378Z,7.57
2018-04-25T15:55:52.736Z,3.83
2018-04-25T16:01:57.118Z,4.10
2018-04-25T16:08:02.200Z,8.63
2018-04-25T16:14:08.083Z,7.13
2018-04-25T16:20:12.501Z,6.13
2018-04-25T16:26:17.794Z,6.33
2018-04-25T16:32:22.158Z,7.50
2018-04-25T16:38:27.432Z,4.00
2018-04-25T16:44:32.468Z,10.33
2018-04-25T16:50:36.815Z,5.87
2018-04-25T16:56:41.207Z,5.63
2018-04-25T17:02:45.560Z,6.57
2018-04-25T17:08:51.387Z,13.53
2018-04-25T17:14:55.762Z,6.70
2018-04-25T17:21:00.131Z,8.60
2018-04-25T17:27:05.273Z,4.70
2018-04-25T17:33:09.650Z,6.90
2018-04-25T17:39:14.047Z,10.23
2018-04-25T17:45:19.182Z,6.50
2018-04-25T17:51:23.541Z,7.33
2018-04-25T17:57:27.947Z,7.40
2018-04-25T18:03:32.288Z,7.30
2018-04-25T18:09:36.772Z,6.20
2018-04-25T18:15:41.173Z,4.47
2018-04-25T18:21:45.528Z,7.40
2018-04-25T18:27:50.093Z,4.50
2018-04-25T18:33:54.631Z,4.50
2018-04-25T18:39:59.780Z,4.40
2018-04-25T18:46:05.340Z,4.07
2018-04-25T18:52:09.750Z,5.57
2018-04-25T18:58:14.113Z,8.00
2018-04-25T19:04:18.503Z,6.23
2018-04-25T19:10:22.907Z,4.87
2018-04-25T19:16:27.324Z,7.03
2018-04-25T19:22:32.878Z,11.63
2018-04-25T19:28:37.577Z,5.20
2018-04-25T19:34:42.894Z,4.60
2018-04-25T19:40:47.337Z,3.83
2018-04-25T19:46:51.680Z,4.73
2018-04-25T19:52:56.051Z,5.47
2018-04-25T19:59:00.426Z,9.83
2018-04-25T20:05:04.896Z,6.13
2018-04-25T20:11:10.115Z,6.00
2018-04-25T20:17:14.570Z,9.17
2018-04-25T20:23:19.711Z,6.60
2018-04-25T20:29:24.140Z,5.20
2018-04-25T20:35:28.520Z,5.70
2018-04-25T20:41:33.013Z,7.13
2018-04-25T20:47:38.353Z,7.83
2018-04-25T20:53:42.713Z,9.83
2018-04-25T20:59:47.085Z,10.27
2018-04-25T21:05:51.452Z,10.77
2018-04-25T21:11:55.828Z,11.90
2018-04-25T21:18:00.206Z,12.67
2018-04-25T21:24:04.835Z,10.87
2018-04-25T21:30:09.978Z,9.03
2018-04-25T21:36:14.414Z,11.80
2018-04-25T21:42:18.903Z,11.53
2018-04-25T21:48:23.247Z,9.43
2018-04-25T21:54:28.374Z,22.07
2018-04-25T22:00:32.910Z,14.63
2018-04-25T22:06:37.324Z,15.20
2018-04-25T22:12:41.745Z,11.57
2018-04-25T22:18:46.180Z,12.80
2018-04-25T22:24:50.541Z,14.17
2018-04-25T22:30:54.911Z,13.10
2018-04-25T22:37:00.200Z,14.33
2018-04-25T22:43:04.649Z,10.63
2018-04-25T22:49:08.986Z,11.50
2018-04-25T22:55:13.485Z,15.60
2018-04-25T23:01:17.918Z,15.70
2018-04-25T23:07:22.270Z,14.30
2018-04-25T23:13:27.393Z,14.63
2018-04-25T23:19:31.985Z,10.50
2018-04-25T23:25:36.379Z,9.00
2018-04-25T23:31:40.723Z,12.13
2018-04-25T23:37:45.078Z,13.87
2018-04-25T23:43:50.226Z,15.70
2018-04-25T23:49:54.578Z,16.30
2018-04-25T23:55:58.926Z,11.80
